Lakeview, New York
Current Conditions -  °F | °C
As of 10:51 PM on Saturday 24 Jan 2015 (Local Time) from KJFK Reporting Station
Broken Clouds Broken Clouds  
Wind Chill: 28°   Ceiling: 8000
Heat Index: 36°   Visibility: 10mi
Dew Point: 24°   Wind: 13mph
Humidity: 62%   Direction: 310°NW
Pressure: 29.48"   Gusts: 24mph
Location:  40.6657°N, 73.6385°W
Report Text: KJFK 250351Z 31011G21KT 10SM FEW050 BKN080 02/M04 A2948 RMK AO2 SLP983 T00221044 $
Loading
Personal Weather Stations






























Interactive Weather Map New forecast layout! Learn more

10-Day Weather Forecast

Advertisements
Track Severe Weather on mobile